sensor_id;sensor_type;location;lat;lon;timestamp;P1;durP1;ratioP1;P2;durP2;ratioP2
29240;SDS011;16268;49.880;8.648;2022-08-21T00:01:43;9.10;;;5.03;;
29240;SDS011;16268;49.880;8.648;2022-08-21T00:04:09;8.75;;;4.80;;
29240;SDS011;16268;49.880;8.648;2022-08-21T00:06:36;7.78;;;4.72;;
29240;SDS011;16268;49.880;8.648;2022-08-21T00:09:03;8.25;;;4.80;;
29240;SDS011;16268;49.880;8.648;2022-08-21T00:11:30;9.60;;;4.68;;
29240;SDS011;16268;49.880;8.648;2022-08-21T00:13:56;9.65;;;4.60;;
29240;SDS011;16268;49.880;8.648;2022-08-21T00:16:22;9.63;;;4.78;;
29240;SDS011;16268;49.880;8.648;2022-08-21T00:18:48;9.65;;;4.65;;
29240;SDS011;16268;49.880;8.648;2022-08-21T00:21:14;8.70;;;5.07;;
29240;SDS011;16268;49.880;8.648;2022-08-21T00:23:40;9.20;;;4.85;;
29240;SDS011;16268;49.880;8.648;2022-08-21T00:26:06;9.68;;;4.97;;
29240;SDS011;16268;49.880;8.648;2022-08-21T00:28:32;10.40;;;5.20;;
29240;SDS011;16268;49.880;8.648;2022-08-21T00:30:58;8.75;;;5.35;;
29240;SDS011;16268;49.880;8.648;2022-08-21T00:33:24;12.40;;;5.45;;
29240;SDS011;16268;49.880;8.648;2022-08-21T00:35:51;9.85;;;5.82;;
29240;SDS011;16268;49.880;8.648;2022-08-21T00:38:16;9.65;;;5.72;;
29240;SDS011;16268;49.880;8.648;2022-08-21T00:43:15;9.55;;;5.22;;
29240;SDS011;16268;49.880;8.648;2022-08-21T00:45:43;8.07;;;5.25;;
29240;SDS011;16268;49.880;8.648;2022-08-21T00:48:09;7.57;;;4.60;;
29240;SDS011;16268;49.880;8.648;2022-08-21T00:50:38;8.45;;;4.95;;
29240;SDS011;16268;49.880;8.648;2022-08-21T00:53:08;10.70;;;5.22;;
29240;SDS011;16268;49.880;8.648;2022-08-21T00:55:35;9.07;;;5.10;;
29240;SDS011;16268;49.880;8.648;2022-08-21T00:58:02;10.23;;;5.30;;
29240;SDS011;16268;49.880;8.648;2022-08-21T01:00:31;8.85;;;5.05;;
29240;SDS011;16268;49.880;8.648;2022-08-21T01:02:59;13.85;;;5.65;;
29240;SDS011;16268;49.880;8.648;2022-08-21T01:05:26;8.88;;;5.20;;
29240;SDS011;16268;49.880;8.648;2022-08-21T01:07:53;9.35;;;5.10;;
29240;SDS011;16268;49.880;8.648;2022-08-21T01:10:21;8.68;;;5.45;;
29240;SDS011;16268;49.880;8.648;2022-08-21T01:12:48;9.48;;;4.85;;
29240;SDS011;16268;49.880;8.648;2022-08-21T01:15:15;9.10;;;5.18;;
29240;SDS011;16268;49.880;8.648;2022-08-21T01:17:42;8.57;;;5.35;;
29240;SDS011;16268;49.880;8.648;2022-08-21T01:20:09;9.65;;;5.03;;
29240;SDS011;16268;49.880;8.648;2022-08-21T01:22:36;8.75;;;5.30;;
29240;SDS011;16268;49.880;8.648;2022-08-21T01:25:08;8.23;;;5.00;;
29240;SDS011;16268;49.880;8.648;2022-08-21T01:27:35;10.10;;;4.85;;
29240;SDS011;16268;49.880;8.648;2022-08-21T01:30:09;10.15;;;4.63;;
29240;SDS011;16268;49.880;8.648;2022-08-21T01:32:41;11.73;;;5.70;;
29240;SDS011;16268;49.880;8.648;2022-08-21T01:35:07;11.00;;;5.35;;
29240;SDS011;16268;49.880;8.648;2022-08-21T01:37:34;10.50;;;5.75;;
29240;SDS011;16268;49.880;8.648;2022-08-21T01:40:00;9.80;;;5.30;;
29240;SDS011;16268;49.880;8.648;2022-08-21T01:42:26;8.90;;;4.60;;
29240;SDS011;16268;49.880;8.648;2022-08-21T01:44:51;9.10;;;4.75;;
29240;SDS011;16268;49.880;8.648;2022-08-21T01:47:17;10.15;;;4.70;;
29240;SDS011;16268;49.880;8.648;2022-08-21T01:49:43;7.25;;;4.28;;
29240;SDS011;16268;49.880;8.648;2022-08-21T01:52:09;8.07;;;4.47;;
29240;SDS011;16268;49.880;8.648;2022-08-21T01:54:36;9.52;;;4.50;;
29240;SDS011;16268;49.880;8.648;2022-08-21T01:57:02;9.18;;;4.55;;
29240;SDS011;16268;49.880;8.648;2022-08-21T01:59:28;10.02;;;4.50;;
29240;SDS011;16268;49.880;8.648;2022-08-21T02:01:53;7.60;;;3.80;;
29240;SDS011;16268;49.880;8.648;2022-08-21T02:04:22;8.70;;;4.63;;
29240;SDS011;16268;49.880;8.648;2022-08-21T02:06:49;8.95;;;4.70;;
29240;SDS011;16268;49.880;8.648;2022-08-21T02:09:15;11.10;;;4.60;;
29240;SDS011;16268;49.880;8.648;2022-08-21T02:11:41;8.68;;;4.20;;
29240;SDS011;16268;49.880;8.648;2022-08-21T02:14:08;10.27;;;4.45;;
29240;SDS011;16268;49.880;8.648;2022-08-21T02:16:36;8.77;;;4.50;;
29240;SDS011;16268;49.880;8.648;2022-08-21T02:19:02;9.45;;;4.25;;
29240;SDS011;16268;49.880;8.648;2022-08-21T02:21:28;8.25;;;4.10;;
29240;SDS011;16268;49.880;8.648;2022-08-21T02:23:54;10.40;;;4.45;;
29240;SDS011;16268;49.880;8.648;2022-08-21T02:26:19;8.63;;;4.25;;
29240;SDS011;16268;49.880;8.648;2022-08-21T02:28:45;7.70;;;3.83;;
29240;SDS011;16268;49.880;8.648;2022-08-21T02:31:10;10.00;;;4.00;;
29240;SDS011;16268;49.880;8.648;2022-08-21T02:33:36;8.25;;;4.18;;
29240;SDS011;16268;49.880;8.648;2022-08-21T02:36:02;12.20;;;4.15;;
29240;SDS011;16268;49.880;8.648;2022-08-21T02:38:30;10.63;;;4.25;;
29240;SDS011;16268;49.880;8.648;2022-08-21T02:40:58;9.85;;;4.40;;
29240;SDS011;16268;49.880;8.648;2022-08-21T02:43:26;9.13;;;4.07;;
29240;SDS011;16268;49.880;8.648;2022-08-21T02:45:53;9.15;;;3.97;;
29240;SDS011;16268;49.880;8.648;2022-08-21T02:48:22;10.23;;;4.03;;
29240;SDS011;16268;49.880;8.648;2022-08-21T02:50:54;12.73;;;4.22;;
29240;SDS011;16268;49.880;8.648;2022-08-21T02:53:25;13.52;;;4.38;;
29240;SDS011;16268;49.880;8.648;2022-08-21T02:55:52;8.98;;;3.92;;
29240;SDS011;16268;49.880;8.648;2022-08-21T02:58:22;9.48;;;4.00;;
29240;SDS011;16268;49.880;8.648;2022-08-21T03:00:50;8.48;;;3.97;;
29240;SDS011;16268;49.880;8.648;2022-08-21T03:03:17;8.07;;;3.95;;
29240;SDS011;16268;49.880;8.648;2022-08-21T03:05:43;8.63;;;3.90;;
29240;SDS011;16268;49.880;8.648;2022-08-21T03:08:10;11.40;;;4.53;;
29240;SDS011;16268;49.880;8.648;2022-08-21T03:10:37;9.25;;;4.32;;
29240;SDS011;16268;49.880;8.648;2022-08-21T03:13:04;8.43;;;4.05;;
29240;SDS011;16268;49.880;8.648;2022-08-21T03:15:31;8.65;;;3.80;;
29240;SDS011;16268;49.880;8.648;2022-08-21T03:17:57;9.10;;;4.07;;
29240;SDS011;16268;49.880;8.648;2022-08-21T03:20:27;8.32;;;4.10;;
29240;SDS011;16268;49.880;8.648;2022-08-21T03:22:54;11.77;;;4.60;;
29240;SDS011;16268;49.880;8.648;2022-08-21T03:25:20;9.68;;;4.18;;
29240;SDS011;16268;49.880;8.648;2022-08-21T03:27:47;10.10;;;4.47;;
29240;SDS011;16268;49.880;8.648;2022-08-21T03:30:16;8.65;;;4.00;;
29240;SDS011;16268;49.880;8.648;2022-08-21T03:32:43;8.70;;;4.38;;
29240;SDS011;16268;49.880;8.648;2022-08-21T03:35:09;10.43;;;4.20;;
29240;SDS011;16268;49.880;8.648;2022-08-21T03:37:35;7.78;;;4.22;;
29240;SDS011;16268;49.880;8.648;2022-08-21T03:40:01;10.18;;;4.45;;
29240;SDS011;16268;49.880;8.648;2022-08-21T03:42:30;10.75;;;4.60;;
29240;SDS011;16268;49.880;8.648;2022-08-21T03:44:56;7.40;;;4.13;;
29240;SDS011;16268;49.880;8.648;2022-08-21T03:47:22;6.75;;;3.95;;
29240;SDS011;16268;49.880;8.648;2022-08-21T03:49:48;10.50;;;4.30;;
29240;SDS011;16268;49.880;8.648;2022-08-21T03:52:13;8.13;;;3.83;;
29240;SDS011;16268;49.880;8.648;2022-08-21T03:54:40;9.18;;;4.00;;
29240;SDS011;16268;49.880;8.648;2022-08-21T03:57:06;9.23;;;4.30;;
29240;SDS011;16268;49.880;8.648;2022-08-21T03:59:31;7.47;;;4.28;;
29240;SDS011;16268;49.880;8.648;2022-08-21T04:01:58;7.53;;;3.63;;
29240;SDS011;16268;49.880;8.648;2022-08-21T04:04:25;8.05;;;4.18;;
29240;SDS011;16268;49.880;8.648;2022-08-21T04:06:52;8.63;;;3.80;;
29240;SDS011;16268;49.880;8.648;2022-08-21T04:09:18;8.00;;;3.95;;
29240;SDS011;16268;49.880;8.648;2022-08-21T04:11:44;10.75;;;4.20;;
29240;SDS011;16268;49.880;8.648;2022-08-21T04:14:12;9.82;;;4.18;;
29240;SDS011;16268;49.880;8.648;2022-08-21T04:16:39;10.75;;;4.03;;
29240;SDS011;16268;49.880;8.648;2022-08-21T04:19:04;11.18;;;4.35;;
29240;SDS011;16268;49.880;8.648;2022-08-21T04:21:30;8.68;;;3.78;;
29240;SDS011;16268;49.880;8.648;2022-08-21T04:23:56;9.02;;;3.72;;
29240;SDS011;16268;49.880;8.648;2022-08-21T04:26:23;10.18;;;4.47;;
29240;SDS011;16268;49.880;8.648;2022-08-21T04:28:48;7.38;;;3.90;;
29240;SDS011;16268;49.880;8.648;2022-08-21T04:31:14;9.90;;;4.10;;
29240;SDS011;16268;49.880;8.648;2022-08-21T04:33:40;9.60;;;3.97;;
29240;SDS011;16268;49.880;8.648;2022-08-21T04:36:05;9.27;;;4.18;;
29240;SDS011;16268;49.880;8.648;2022-08-21T04:38:31;9.40;;;4.10;;
29240;SDS011;16268;49.880;8.648;2022-08-21T04:40:57;8.63;;;4.03;;
29240;SDS011;16268;49.880;8.648;2022-08-21T04:43:23;11.25;;;4.72;;
29240;SDS011;16268;49.880;8.648;2022-08-21T04:45:49;8.65;;;4.10;;
29240;SDS011;16268;49.880;8.648;2022-08-21T04:48:17;7.95;;;4.05;;
29240;SDS011;16268;49.880;8.648;2022-08-21T04:56:41;8.45;;;4.20;;
29240;SDS011;16268;49.880;8.648;2022-08-21T04:59:21;9.77;;;5.00;;
29240;SDS011;16268;49.880;8.648;2022-08-21T05:02:01;9.20;;;5.03;;
29240;SDS011;16268;49.880;8.648;2022-08-21T05:04:29;7.35;;;4.43;;
29240;SDS011;16268;49.880;8.648;2022-08-21T05:06:58;8.45;;;5.35;;
29240;SDS011;16268;49.880;8.648;2022-08-21T05:09:27;6.57;;;4.20;;
29240;SDS011;16268;49.880;8.648;2022-08-21T05:11:53;8.98;;;4.72;;
29240;SDS011;16268;49.880;8.648;2022-08-21T05:14:20;8.93;;;4.28;;
29240;SDS011;16268;49.880;8.648;2022-08-21T05:16:46;9.52;;;4.70;;
29240;SDS011;16268;49.880;8.648;2022-08-21T05:19:11;8.82;;;4.80;;
29240;SDS011;16268;49.880;8.648;2022-08-21T05:21:38;8.57;;;4.72;;
29240;SDS011;16268;49.880;8.648;2022-08-21T05:24:07;8.07;;;4.53;;
29240;SDS011;16268;49.880;8.648;2022-08-21T05:26:33;8.07;;;4.30;;
29240;SDS011;16268;49.880;8.648;2022-08-21T05:28:59;10.15;;;4.00;;
29240;SDS011;16268;49.880;8.648;2022-08-21T05:31:24;7.80;;;4.22;;
29240;SDS011;16268;49.880;8.648;2022-08-21T05:33:50;9.40;;;3.85;;
29240;SDS011;16268;49.880;8.648;2022-08-21T05:36:16;9.18;;;4.30;;
29240;SDS011;16268;49.880;8.648;2022-08-21T05:38:42;7.68;;;3.85;;
29240;SDS011;16268;49.880;8.648;2022-08-21T05:41:08;9.95;;;4.68;;
29240;SDS011;16268;49.880;8.648;2022-08-21T05:43:34;9.70;;;4.35;;
29240;SDS011;16268;49.880;8.648;2022-08-21T05:46:01;7.03;;;3.70;;
29240;SDS011;16268;49.880;8.648;2022-08-21T05:48:27;10.95;;;4.57;;
29240;SDS011;16268;49.880;8.648;2022-08-21T05:50:53;8.02;;;3.95;;
29240;SDS011;16268;49.880;8.648;2022-08-21T05:53:19;8.35;;;4.10;;
29240;SDS011;16268;49.880;8.648;2022-08-21T05:55:46;8.65;;;4.15;;
29240;SDS011;16268;49.880;8.648;2022-08-21T05:58:13;7.25;;;3.75;;
29240;SDS011;16268;49.880;8.648;2022-08-21T06:00:40;7.25;;;3.47;;
29240;SDS011;16268;49.880;8.648;2022-08-21T06:03:10;9.60;;;3.88;;
29240;SDS011;16268;49.880;8.648;2022-08-21T06:05:37;6.63;;;3.20;;
29240;SDS011;16268;49.880;8.648;2022-08-21T06:08:03;8.52;;;3.15;;
29240;SDS011;16268;49.880;8.648;2022-08-21T06:10:29;7.65;;;3.05;;
29240;SDS011;16268;49.880;8.648;2022-08-21T06:12:55;10.50;;;3.47;;
29240;SDS011;16268;49.880;8.648;2022-08-21T06:15:20;8.38;;;3.55;;
29240;SDS011;16268;49.880;8.648;2022-08-21T06:17:46;6.45;;;3.30;;
29240;SDS011;16268;49.880;8.648;2022-08-21T06:20:11;6.88;;;3.00;;
29240;SDS011;16268;49.880;8.648;2022-08-21T06:22:37;9.13;;;3.50;;
29240;SDS011;16268;49.880;8.648;2022-08-21T06:25:03;7.03;;;2.95;;
29240;SDS011;16268;49.880;8.648;2022-08-21T06:27:28;8.18;;;3.45;;
29240;SDS011;16268;49.880;8.648;2022-08-21T06:29:54;7.32;;;3.10;;
29240;SDS011;16268;49.880;8.648;2022-08-21T06:32:22;7.65;;;2.95;;
29240;SDS011;16268;49.880;8.648;2022-08-21T06:34:47;7.10;;;3.08;;
29240;SDS011;16268;49.880;8.648;2022-08-21T06:37:13;8.50;;;3.05;;
29240;SDS011;16268;49.880;8.648;2022-08-21T06:39:38;8.70;;;3.17;;
29240;SDS011;16268;49.880;8.648;2022-08-21T06:42:04;6.35;;;3.10;;
29240;SDS011;16268;49.880;8.648;2022-08-21T06:44:30;8.60;;;3.40;;
29240;SDS011;16268;49.880;8.648;2022-08-21T06:46:55;8.55;;;3.20;;
29240;SDS011;16268;49.880;8.648;2022-08-21T06:49:21;9.75;;;3.45;;
29240;SDS011;16268;49.880;8.648;2022-08-21T06:51:47;7.70;;;3.15;;
29240;SDS011;16268;49.880;8.648;2022-08-21T06:54:12;7.35;;;2.90;;
29240;SDS011;16268;49.880;8.648;2022-08-21T06:56:38;6.93;;;3.15;;
29240;SDS011;16268;49.880;8.648;2022-08-21T06:59:04;7.10;;;3.30;;
29240;SDS011;16268;49.880;8.648;2022-08-21T07:01:30;6.13;;;2.90;;
29240;SDS011;16268;49.880;8.648;2022-08-21T07:03:56;6.68;;;3.10;;
29240;SDS011;16268;49.880;8.648;2022-08-21T07:06:21;7.05;;;3.17;;
29240;SDS011;16268;49.880;8.648;2022-08-21T07:08:47;6.78;;;3.20;;
29240;SDS011;16268;49.880;8.648;2022-08-21T07:11:14;8.52;;;3.40;;
29240;SDS011;16268;49.880;8.648;2022-08-21T07:13:44;7.00;;;3.22;;
29240;SDS011;16268;49.880;8.648;2022-08-21T07:16:10;7.45;;;3.50;;
29240;SDS011;16268;49.880;8.648;2022-08-21T07:18:35;9.77;;;4.18;;
29240;SDS011;16268;49.880;8.648;2022-08-21T07:21:02;6.78;;;3.45;;
29240;SDS011;16268;49.880;8.648;2022-08-21T07:23:30;8.57;;;3.90;;
29240;SDS011;16268;49.880;8.648;2022-08-21T07:26:05;8.40;;;3.45;;
29240;SDS011;16268;49.880;8.648;2022-08-21T07:28:32;8.48;;;3.92;;
29240;SDS011;16268;49.880;8.648;2022-08-21T07:30:58;9.70;;;4.10;;
29240;SDS011;16268;49.880;8.648;2022-08-21T07:33:26;11.75;;;8.15;;
29240;SDS011;16268;49.880;8.648;2022-08-21T07:35:53;10.75;;;6.38;;
29240;SDS011;16268;49.880;8.648;2022-08-21T07:38:19;10.07;;;5.05;;
29240;SDS011;16268;49.880;8.648;2022-08-21T07:40:45;9.40;;;4.70;;
29240;SDS011;16268;49.880;8.648;2022-08-21T07:43:12;8.98;;;3.88;;
29240;SDS011;16268;49.880;8.648;2022-08-21T07:45:37;7.00;;;3.60;;
29240;SDS011;16268;49.880;8.648;2022-08-21T07:48:03;7.40;;;3.58;;
29240;SDS011;16268;49.880;8.648;2022-08-21T07:50:29;8.05;;;4.18;;
29240;SDS011;16268;49.880;8.648;2022-08-21T07:52:55;7.43;;;4.05;;
29240;SDS011;16268;49.880;8.648;2022-08-21T07:55:21;8.27;;;4.38;;
29240;SDS011;16268;49.880;8.648;2022-08-21T07:57:47;8.15;;;4.30;;
29240;SDS011;16268;49.880;8.648;2022-08-21T08:00:14;8.15;;;5.13;;
29240;SDS011;16268;49.880;8.648;2022-08-21T08:05:15;8.77;;;4.90;;
29240;SDS011;16268;49.880;8.648;2022-08-21T08:07:41;7.95;;;4.20;;
29240;SDS011;16268;49.880;8.648;2022-08-21T08:10:08;8.85;;;6.20;;
29240;SDS011;16268;49.880;8.648;2022-08-21T08:12:35;7.78;;;4.05;;
29240;SDS011;16268;49.880;8.648;2022-08-21T08:15:02;7.90;;;4.65;;
29240;SDS011;16268;49.880;8.648;2022-08-21T08:17:29;6.40;;;3.83;;
29240;SDS011;16268;49.880;8.648;2022-08-21T08:19:57;7.78;;;4.13;;
29240;SDS011;16268;49.880;8.648;2022-08-21T08:22:22;8.88;;;5.20;;
29240;SDS011;16268;49.880;8.648;2022-08-21T08:24:49;6.25;;;3.63;;
29240;SDS011;16268;49.880;8.648;2022-08-21T08:27:16;8.02;;;5.25;;
29240;SDS011;16268;49.880;8.648;2022-08-21T08:29:43;8.70;;;4.20;;
29240;SDS011;16268;49.880;8.648;2022-08-21T08:32:09;7.25;;;4.15;;
29240;SDS011;16268;49.880;8.648;2022-08-21T08:34:35;6.18;;;3.80;;
29240;SDS011;16268;49.880;8.648;2022-08-21T08:37:02;9.23;;;3.88;;
29240;SDS011;16268;49.880;8.648;2022-08-21T08:39:29;6.78;;;3.90;;
29240;SDS011;16268;49.880;8.648;2022-08-21T08:42:37;7.18;;;4.05;;
29240;SDS011;16268;49.880;8.648;2022-08-21T08:44:49;8.38;;;4.68;;
29240;SDS011;16268;49.880;8.648;2022-08-21T08:47:23;8.73;;;4.45;;
29240;SDS011;16268;49.880;8.648;2022-08-21T08:49:55;9.32;;;4.20;;
29240;SDS011;16268;49.880;8.648;2022-08-21T08:52:32;10.75;;;6.50;;
29240;SDS011;16268;49.880;8.648;2022-08-21T08:55:05;20.35;;;15.32;;
29240;SDS011;16268;49.880;8.648;2022-08-21T08:57:33;9.95;;;6.07;;
29240;SDS011;16268;49.880;8.648;2022-08-21T09:00:02;10.60;;;6.85;;
29240;SDS011;16268;49.880;8.648;2022-08-21T09:02:30;8.88;;;5.03;;
29240;SDS011;16268;49.880;8.648;2022-08-21T09:04:58;8.15;;;4.75;;
29240;SDS011;16268;49.880;8.648;2022-08-21T09:07:32;8.38;;;4.70;;
29240;SDS011;16268;49.880;8.648;2022-08-21T09:10:19;8.85;;;4.45;;
29240;SDS011;16268;49.880;8.648;2022-08-21T09:13:12;6.30;;;3.70;;
29240;SDS011;16268;49.880;8.648;2022-08-21T09:19:07;8.15;;;4.82;;
29240;SDS011;16268;49.880;8.648;2022-08-21T09:21:59;7.97;;;3.33;;
29240;SDS011;16268;49.880;8.648;2022-08-21T09:27:17;7.90;;;2.80;;
29240;SDS011;16268;49.880;8.648;2022-08-21T09:29:45;5.85;;;2.63;;
29240;SDS011;16268;49.880;8.648;2022-08-21T09:32:23;6.68;;;2.78;;
29240;SDS011;16268;49.880;8.648;2022-08-21T09:34:58;7.68;;;3.22;;
29240;SDS011;16268;49.880;8.648;2022-08-21T09:37:24;8.55;;;3.40;;
29240;SDS011;16268;49.880;8.648;2022-08-21T09:39:51;6.80;;;2.90;;
29240;SDS011;16268;49.880;8.648;2022-08-21T09:42:27;7.28;;;3.53;;
29240;SDS011;16268;49.880;8.648;2022-08-21T09:45:08;6.85;;;3.08;;
29240;SDS011;16268;49.880;8.648;2022-08-21T09:47:36;6.10;;;2.85;;
29240;SDS011;16268;49.880;8.648;2022-08-21T09:50:10;7.35;;;2.67;;
29240;SDS011;16268;49.880;8.648;2022-08-21T09:52:44;6.38;;;2.50;;
29240;SDS011;16268;49.880;8.648;2022-08-21T09:55:19;6.65;;;2.88;;
29240;SDS011;16268;49.880;8.648;2022-08-21T09:58:14;7.03;;;3.05;;
29240;SDS011;16268;49.880;8.648;2022-08-21T10:00:40;7.22;;;2.83;;
29240;SDS011;16268;49.880;8.648;2022-08-21T10:03:10;5.47;;;2.80;;
29240;SDS011;16268;49.880;8.648;2022-08-21T10:05:38;6.22;;;2.88;;
29240;SDS011;16268;49.880;8.648;2022-08-21T10:08:05;8.63;;;4.70;;
29240;SDS011;16268;49.880;8.648;2022-08-21T10:10:42;16.63;;;10.07;;
29240;SDS011;16268;49.880;8.648;2022-08-21T10:13:12;7.30;;;3.40;;
29240;SDS011;16268;49.880;8.648;2022-08-21T10:17:14;6.15;;;2.65;;
29240;SDS011;16268;49.880;8.648;2022-08-21T10:22:04;7.15;;;2.60;;
29240;SDS011;16268;49.880;8.648;2022-08-21T10:28:17;5.90;;;2.72;;
29240;SDS011;16268;49.880;8.648;2022-08-21T10:33:27;8.60;;;2.95;;
29240;SDS011;16268;49.880;8.648;2022-08-21T10:35:56;6.82;;;2.42;;
29240;SDS011;16268;49.880;8.648;2022-08-21T10:44:28;6.00;;;2.55;;
29240;SDS011;16268;49.880;8.648;2022-08-21T10:52:16;6.95;;;2.78;;
29240;SDS011;16268;49.880;8.648;2022-08-21T11:00:07;6.97;;;2.92;;
29240;SDS011;16268;49.880;8.648;2022-08-21T11:02:41;10.68;;;5.75;;
29240;SDS011;16268;49.880;8.648;2022-08-21T11:05:18;6.65;;;2.70;;
29240;SDS011;16268;49.880;8.648;2022-08-21T11:08:46;5.82;;;2.50;;
29240;SDS011;16268;49.880;8.648;2022-08-21T11:10:59;15.10;;;9.35;;
29240;SDS011;16268;49.880;8.648;2022-08-21T11:13:40;6.20;;;2.70;;
29240;SDS011;16268;49.880;8.648;2022-08-21T11:21:42;8.15;;;3.40;;
29240;SDS011;16268;49.880;8.648;2022-08-21T11:24:32;5.60;;;2.75;;
29240;SDS011;16268;49.880;8.648;2022-08-21T11:27:21;5.97;;;2.83;;
29240;SDS011;16268;49.880;8.648;2022-08-21T11:29:56;6.22;;;2.40;;
29240;SDS011;16268;49.880;8.648;2022-08-21T11:38:28;6.40;;;2.67;;
29240;SDS011;16268;49.880;8.648;2022-08-21T11:43:41;7.13;;;2.65;;
29240;SDS011;16268;49.880;8.648;2022-08-21T11:57:02;6.30;;;2.65;;
29240;SDS011;16268;49.880;8.648;2022-08-21T11:59:40;5.25;;;2.42;;
29240;SDS011;16268;49.880;8.648;2022-08-21T12:02:23;6.57;;;2.83;;
29240;SDS011;16268;49.880;8.648;2022-08-21T12:04:54;6.43;;;2.38;;
29240;SDS011;16268;49.880;8.648;2022-08-21T12:07:31;5.57;;;2.72;;
29240;SDS011;16268;49.880;8.648;2022-08-21T12:10:09;7.53;;;2.80;;
29240;SDS011;16268;49.880;8.648;2022-08-21T12:12:37;6.72;;;2.50;;
29240;SDS011;16268;49.880;8.648;2022-08-21T12:17:59;5.78;;;2.50;;
29240;SDS011;16268;49.880;8.648;2022-08-21T12:23:27;5.50;;;2.30;;
29240;SDS011;16268;49.880;8.648;2022-08-21T12:28:43;4.47;;;2.30;;
29240;SDS011;16268;49.880;8.648;2022-08-21T12:31:19;6.90;;;2.60;;
29240;SDS011;16268;49.880;8.648;2022-08-21T12:33:51;6.63;;;2.55;;
29240;SDS011;16268;49.880;8.648;2022-08-21T12:36:24;4.80;;;2.40;;
29240;SDS011;16268;49.880;8.648;2022-08-21T12:39:04;6.32;;;2.40;;
29240;SDS011;16268;49.880;8.648;2022-08-21T12:41:48;6.57;;;2.60;;
29240;SDS011;16268;49.880;8.648;2022-08-21T12:44:22;5.50;;;2.30;;
29240;SDS011;16268;49.880;8.648;2022-08-21T12:46:59;4.40;;;2.00;;
29240;SDS011;16268;49.880;8.648;2022-08-21T12:49:37;6.82;;;2.53;;
29240;SDS011;16268;49.880;8.648;2022-08-21T12:52:14;5.00;;;2.33;;
29240;SDS011;16268;49.880;8.648;2022-08-21T12:55:00;7.10;;;2.33;;
29240;SDS011;16268;49.880;8.648;2022-08-21T12:57:27;6.93;;;2.10;;
29240;SDS011;16268;49.880;8.648;2022-08-21T13:02:33;5.82;;;2.30;;
29240;SDS011;16268;49.880;8.648;2022-08-21T13:05:05;6.10;;;1.88;;
29240;SDS011;16268;49.880;8.648;2022-08-21T13:07:34;6.25;;;2.40;;
29240;SDS011;16268;49.880;8.648;2022-08-21T13:10:14;5.28;;;2.10;;
29240;SDS011;16268;49.880;8.648;2022-08-21T13:12:45;4.35;;;2.25;;
29240;SDS011;16268;49.880;8.648;2022-08-21T13:15:12;6.32;;;2.30;;
29240;SDS011;16268;49.880;8.648;2022-08-21T13:17:39;5.80;;;2.20;;
29240;SDS011;16268;49.880;8.648;2022-08-21T13:20:19;6.47;;;2.45;;
29240;SDS011;16268;49.880;8.648;2022-08-21T13:22:49;5.53;;;2.20;;
29240;SDS011;16268;49.880;8.648;2022-08-21T13:25:17;6.47;;;2.03;;
29240;SDS011;16268;49.880;8.648;2022-08-21T13:27:55;5.57;;;2.57;;
29240;SDS011;16268;49.880;8.648;2022-08-21T13:30:28;5.35;;;2.17;;
29240;SDS011;16268;49.880;8.648;2022-08-21T13:32:56;5.80;;;2.40;;
29240;SDS011;16268;49.880;8.648;2022-08-21T13:35:26;7.10;;;2.20;;
29240;SDS011;16268;49.880;8.648;2022-08-21T13:37:59;4.82;;;1.92;;
29240;SDS011;16268;49.880;8.648;2022-08-21T13:40:26;7.10;;;2.42;;
29240;SDS011;16268;49.880;8.648;2022-08-21T13:42:56;6.78;;;2.63;;
29240;SDS011;16268;49.880;8.648;2022-08-21T13:45:47;5.65;;;2.20;;
29240;SDS011;16268;49.880;8.648;2022-08-21T13:48:15;5.47;;;2.03;;
29240;SDS011;16268;49.880;8.648;2022-08-21T13:50:41;5.32;;;2.30;;
29240;SDS011;16268;49.880;8.648;2022-08-21T13:53:19;9.32;;;2.50;;
29240;SDS011;16268;49.880;8.648;2022-08-21T13:55:48;7.45;;;2.60;;
29240;SDS011;16268;49.880;8.648;2022-08-21T13:58:23;6.35;;;2.30;;
29240;SDS011;16268;49.880;8.648;2022-08-21T14:00:54;5.90;;;2.55;;
29240;SDS011;16268;49.880;8.648;2022-08-21T14:03:38;5.97;;;2.00;;
29240;SDS011;16268;49.880;8.648;2022-08-21T14:06:11;6.38;;;2.20;;
29240;SDS011;16268;49.880;8.648;2022-08-21T14:08:39;7.03;;;2.28;;
29240;SDS011;16268;49.880;8.648;2022-08-21T14:11:09;5.15;;;1.95;;
29240;SDS011;16268;49.880;8.648;2022-08-21T14:18:45;4.63;;;2.05;;
29240;SDS011;16268;49.880;8.648;2022-08-21T14:21:12;6.22;;;2.25;;
29240;SDS011;16268;49.880;8.648;2022-08-21T14:23:38;5.40;;;2.25;;
29240;SDS011;16268;49.880;8.648;2022-08-21T14:26:04;5.18;;;2.05;;
29240;SDS011;16268;49.880;8.648;2022-08-21T14:30:59;5.57;;;2.30;;
29240;SDS011;16268;49.880;8.648;2022-08-21T14:33:37;6.88;;;2.10;;
29240;SDS011;16268;49.880;8.648;2022-08-21T14:36:02;5.43;;;2.10;;
29240;SDS011;16268;49.880;8.648;2022-08-21T14:38:28;4.97;;;2.08;;
29240;SDS011;16268;49.880;8.648;2022-08-21T14:40:56;6.22;;;2.20;;
29240;SDS011;16268;49.880;8.648;2022-08-21T14:43:23;5.05;;;2.05;;
29240;SDS011;16268;49.880;8.648;2022-08-21T14:45:51;5.40;;;2.28;;
29240;SDS011;16268;49.880;8.648;2022-08-21T14:48:16;6.80;;;2.40;;
29240;SDS011;16268;49.880;8.648;2022-08-21T14:50:42;4.40;;;1.85;;
29240;SDS011;16268;49.880;8.648;2022-08-21T14:53:07;5.50;;;2.40;;
29240;SDS011;16268;49.880;8.648;2022-08-21T14:55:34;5.45;;;2.10;;
29240;SDS011;16268;49.880;8.648;2022-08-21T14:58:21;5.13;;;2.10;;
29240;SDS011;16268;49.880;8.648;2022-08-21T15:00:47;6.20;;;2.45;;
29240;SDS011;16268;49.880;8.648;2022-08-21T15:03:14;4.20;;;1.70;;
29240;SDS011;16268;49.880;8.648;2022-08-21T15:05:40;5.47;;;2.00;;
29240;SDS011;16268;49.880;8.648;2022-08-21T15:08:05;4.40;;;1.70;;
29240;SDS011;16268;49.880;8.648;2022-08-21T15:10:31;7.35;;;2.17;;
29240;SDS011;16268;49.880;8.648;2022-08-21T15:12:58;5.32;;;2.10;;
29240;SDS011;16268;49.880;8.648;2022-08-21T15:15:25;4.95;;;1.77;;
29240;SDS011;16268;49.880;8.648;2022-08-21T15:17:50;5.00;;;2.05;;
29240;SDS011;16268;49.880;8.648;2022-08-21T15:20:16;5.88;;;2.03;;
29240;SDS011;16268;49.880;8.648;2022-08-21T15:22:41;6.38;;;2.50;;
29240;SDS011;16268;49.880;8.648;2022-08-21T15:25:07;5.15;;;2.38;;
29240;SDS011;16268;49.880;8.648;2022-08-21T15:27:33;7.68;;;2.38;;
29240;SDS011;16268;49.880;8.648;2022-08-21T15:29:59;6.57;;;2.13;;
29240;SDS011;16268;49.880;8.648;2022-08-21T15:32:27;4.68;;;1.90;;
29240;SDS011;16268;49.880;8.648;2022-08-21T15:34:55;5.40;;;1.83;;
29240;SDS011;16268;49.880;8.648;2022-08-21T15:37:22;7.15;;;2.13;;
29240;SDS011;16268;49.880;8.648;2022-08-21T15:39:48;5.13;;;2.13;;
29240;SDS011;16268;49.880;8.648;2022-08-21T15:42:15;4.97;;;1.92;;
29240;SDS011;16268;49.880;8.648;2022-08-21T15:44:41;6.97;;;2.38;;
29240;SDS011;16268;49.880;8.648;2022-08-21T15:47:12;5.28;;;2.03;;
29240;SDS011;16268;49.880;8.648;2022-08-21T15:49:40;5.50;;;2.05;;
29240;SDS011;16268;49.880;8.648;2022-08-21T15:52:09;5.97;;;2.30;;
29240;SDS011;16268;49.880;8.648;2022-08-21T15:54:36;6.03;;;2.17;;
29240;SDS011;16268;49.880;8.648;2022-08-21T15:57:02;6.75;;;2.35;;
29240;SDS011;16268;49.880;8.648;2022-08-21T15:59:27;4.57;;;1.80;;
29240;SDS011;16268;49.880;8.648;2022-08-21T16:02:02;5.00;;;2.00;;
29240;SDS011;16268;49.880;8.648;2022-08-21T16:04:28;5.25;;;2.05;;
29240;SDS011;16268;49.880;8.648;2022-08-21T16:06:53;6.07;;;2.08;;
29240;SDS011;16268;49.880;8.648;2022-08-21T16:09:19;5.75;;;2.00;;
29240;SDS011;16268;49.880;8.648;2022-08-21T16:11:46;6.38;;;2.25;;
29240;SDS011;16268;49.880;8.648;2022-08-21T16:14:12;7.80;;;2.13;;
29240;SDS011;16268;49.880;8.648;2022-08-21T16:16:40;7.07;;;2.05;;
29240;SDS011;16268;49.880;8.648;2022-08-21T16:19:05;5.50;;;1.92;;
29240;SDS011;16268;49.880;8.648;2022-08-21T16:21:32;5.72;;;2.00;;
29240;SDS011;16268;49.880;8.648;2022-08-21T16:23:59;5.72;;;1.92;;